<?xml version="1.0" encoding="UTF-8" standalone="no" ?>
<gpx xmlns="http://www.topografix.com/GPX/1/1" xmlns:xsi="http://www.w3.org/2001/XMLSchema-instance" xsi:schemaLocation="http://www.topografix.com/GPX/1/1 http://www.topografix.com/GPX/1/1/gpx.xsd" version="1.1" creator="VisuGPX - https://www.visugpx.com">
  <metadata>
    <name>Nocturne Faumont 2025 : 35 km intermédiaire</name>
    <desc><![CDATA[Parcours intermédiaire de 35 km de la Nocturne de Faumont 2025]]></desc>
  </metadata>
  <trk>
    <name><![CDATA[Nocturne Faumont 2025 : 35 km intermédiaire_2]]></name>
    <trkseg>
      <trkpt lat="50.48072" lon="3.07916">
        <ele>48</ele>
        <time>2025-05-25T13:14:33Z</time>
      </trkpt>
      <trkpt lat="50.4813" lon="3.07876">
        <ele>48</ele>
        <time>2025-05-25T13:14:48Z</time>
      </trkpt>
      <trkpt lat="50.48155" lon="3.07824">
        <ele>47</ele>
        <time>2025-05-25T13:14:58Z</time>
      </trkpt>
      <trkpt lat="50.48157" lon="3.07782">
        <ele>47</ele>
        <time>2025-05-25T13:15:04Z</time>
      </trkpt>
      <trkpt lat="50.48206" lon="3.07723">
        <ele>46</ele>
        <time>2025-05-25T13:15:18Z</time>
      </trkpt>
      <trkpt lat="50.48285" lon="3.07703">
        <ele>45</ele>
        <time>2025-05-25T13:15:37Z</time>
      </trkpt>
      <trkpt lat="50.48291" lon="3.07678">
        <ele>45</ele>
        <time>2025-05-25T13:15:41Z</time>
      </trkpt>
      <trkpt lat="50.48353" lon="3.07671">
        <ele>46</ele>
        <time>2025-05-25T13:15:55Z</time>
      </trkpt>
      <trkpt lat="50.48421" lon="3.07709">
        <ele>47</ele>
        <time>2025-05-25T13:16:12Z</time>
      </trkpt>
      <trkpt lat="50.48511" lon="3.07708">
        <ele>46</ele>
        <time>2025-05-25T13:16:33Z</time>
      </trkpt>
      <trkpt lat="50.48533" lon="3.07653">
        <ele>45</ele>
        <time>2025-05-25T13:16:43Z</time>
      </trkpt>
      <trkpt lat="50.48611" lon="3.07622">
        <ele>44</ele>
        <time>2025-05-25T13:17:02Z</time>
      </trkpt>
      <trkpt lat="50.48625" lon="3.0759">
        <ele>44</ele>
        <time>2025-05-25T13:17:08Z</time>
      </trkpt>
      <trkpt lat="50.487" lon="3.07574">
        <ele>44</ele>
        <time>2025-05-25T13:17:25Z</time>
      </trkpt>
      <trkpt lat="50.48763" lon="3.07517">
        <ele>43</ele>
        <time>2025-05-25T13:17:42Z</time>
      </trkpt>
      <trkpt lat="50.48816" lon="3.07518">
        <ele>43</ele>
        <time>2025-05-25T13:17:55Z</time>
      </trkpt>
      <trkpt lat="50.48877" lon="3.07504">
        <ele>42</ele>
        <time>2025-05-25T13:18:09Z</time>
      </trkpt>
      <trkpt lat="50.48931" lon="3.07475">
        <ele>42</ele>
        <time>2025-05-25T13:18:22Z</time>
      </trkpt>
      <trkpt lat="50.49002" lon="3.07543">
        <ele>42</ele>
        <time>2025-05-25T13:18:42Z</time>
      </trkpt>
      <trkpt lat="50.49033" lon="3.07564">
        <ele>42</ele>
        <time>2025-05-25T13:18:50Z</time>
      </trkpt>
      <trkpt lat="50.49088" lon="3.07623">
        <ele>43</ele>
        <time>2025-05-25T13:19:05Z</time>
      </trkpt>
      <trkpt lat="50.49101" lon="3.07476">
        <ele>42</ele>
        <time>2025-05-25T13:19:27Z</time>
      </trkpt>
      <trkpt lat="50.49106" lon="3.07371">
        <ele>42</ele>
        <time>2025-05-25T13:19:43Z</time>
      </trkpt>
      <trkpt lat="50.4913" lon="3.07109">
        <ele>44</ele>
        <time>2025-05-25T13:20:22Z</time>
      </trkpt>
      <trkpt lat="50.49143" lon="3.07084">
        <ele>44</ele>
        <time>2025-05-25T13:20:27Z</time>
      </trkpt>
    </trkseg>
  </trk>
</gpx>